Weather History for Grand Marais Airport, MN

Change the Weather History Date:

Sunday, May 26, 2013

  Actual Average Record
Temperature  
Mean Temperature 48 °F -  
Max Temperature 60 °F 59 °F 73 °F (2003)
Min Temperature 35 °F 38 °F 28 °F (1997)
Degree Days  
Heating Degree Days 18    
Moisture  
Dew Point 26 °F    
Average Humidity 40    
Maximum Humidity 65    
Minimum Humidity 23    
Precipitation  
Precipitation 0.00 in - - ()
Sea Level Pressure  
Sea Level Pressure 30.30 in    
Wind  
Wind Speed 6 mph (ENE)    
Max Wind Speed 10 mph    
Max Gust Speed -    
Visibility 10 miles    
Events      
Averages and records for this station are not official NWS values.
T = Trace of Precipitation, MM = Missing Value Source: NWS Daily Summary

Daily Weather History Graph

Daily Weather History Graph

Search for Another Location

Airport:

Trip Planner

Search our weather history database for the weather conditions in past years. The results will help you decide how hot, cold, wet, or windy it might be!

Date:

Astronomy

May. 26, 2013 Rise Set
Actual Time 5:11 AM CDT 8:46 PM CDT
Civil Twilight 4:32 AM CDT 9:25 PM CDT
Nautical Twilight 3:40 AM CDT 10:17 PM CDT
Astronomical Twilight 2:30 AM CDT 11:29 PM CDT
Moon 10:31 PM CDT (5/26) 6:41 AM CDT (5/26)
Length of Visible Light 16h 52m
Length of Day
15h 35m
Waning Gibbous, 96% of the Moon is Illuminated
May 26
Waning Gibbous
May 31
Last Quarter
Jun 8
New
Jun 16
First Quarter
Jun 23
Full

Hourly Weather History & Observations

Time (CDT) Temp. Windchill Dew Point Humidity Pressure Visibility Wind Dir Wind Speed Gust Speed Precip Events Conditions
12:13 AM 42.8 °F - 23.0 °F 46% 30.35 in 10.0 mi Calm Calm - N/A   Clear
12:33 AM 39.2 °F 37.0 °F 24.8 °F 56% 30.34 in 10.0 mi ENE 3.5 mph - N/A   Clear
12:53 AM 39.2 °F 35.9 °F 23.0 °F 52% 30.33 in 10.0 mi East 4.6 mph - N/A   Clear
1:14 AM 39.2 °F 37.0 °F 23.0 °F 52% 30.33 in 10.0 mi ENE 3.5 mph - N/A   Clear
1:34 AM 39.2 °F 37.0 °F 24.8 °F 56% 30.33 in 10.0 mi NE 3.5 mph - N/A   Clear
1:53 AM 39.2 °F 35.9 °F 23.0 °F 52% 30.33 in 10.0 mi NNE 4.6 mph - N/A   Clear
2:14 AM 39.2 °F 35.0 °F 24.8 °F 56% 30.33 in 10.0 mi NE 5.8 mph - N/A   Clear
2:33 AM 39.2 °F 35.0 °F 23.0 °F 52% 30.33 in 10.0 mi NNE 5.8 mph - N/A   Clear
2:53 AM 37.4 °F 32.1 °F 23.0 °F 56% 30.33 in 10.0 mi NNE 6.9 mph - N/A   Clear
3:14 AM 37.4 °F 32.1 °F 23.0 °F 56% 30.33 in 10.0 mi NNE 6.9 mph - N/A   Clear
3:34 AM 37.4 °F 32.1 °F 21.2 °F 52% 30.33 in 10.0 mi NNE 6.9 mph - N/A   Clear
3:53 AM 37.4 °F 32.8 °F 21.2 °F 52% 30.33 in 10.0 mi NNE 5.8 mph - N/A   Clear
4:13 AM 37.4 °F 32.1 °F 23.0 °F 56% 30.33 in 10.0 mi NNE 6.9 mph - N/A   Clear
4:33 AM 37.4 °F 32.1 °F 24.8 °F 60% 30.32 in 10.0 mi NNE 6.9 mph - N/A   Clear
4:53 AM 37.4 °F 32.1 °F 23.0 °F 56% 30.32 in 10.0 mi NNE 6.9 mph - N/A   Clear
5:14 AM 35.6 °F 29.2 °F 24.8 °F 65% 30.31 in 10.0 mi NNE 8.1 mph - N/A   Clear
5:33 AM 35.6 °F 29.9 °F 24.8 °F 65% 30.31 in 10.0 mi NE 6.9 mph - N/A   Clear
5:53 AM 39.2 °F 34.2 °F 23.0 °F 52% 30.32 in 10.0 mi ENE 6.9 mph - N/A   Clear
6:14 AM 42.8 °F 39.3 °F 23.0 °F 46% 30.34 in 10.0 mi East 5.8 mph - N/A   Clear
6:34 AM 44.6 °F 43.1 °F 23.0 °F 43% 30.35 in 10.0 mi East 3.5 mph - N/A   Clear
6:53 AM 46.4 °F 43.5 °F 24.8 °F 43% 30.35 in 10.0 mi East 5.8 mph - N/A   Clear
7:13 AM 46.4 °F 43.5 °F 24.8 °F 43% 30.35 in 10.0 mi ESE 5.8 mph - N/A   Clear
7:34 AM 46.4 °F 41.9 °F 24.8 °F 43% 30.34 in 10.0 mi East 9.2 mph - N/A   Clear
7:54 AM 48.2 °F - 24.8 °F 40% 30.33 in 10.0 mi ENE 10.4 mph - N/A   Clear
8:13 AM 50.0 °F - 26.6 °F 40% 30.33 in 10.0 mi ENE 10.4 mph - N/A   Clear
8:33 AM 51.8 °F - 28.4 °F 41% 30.33 in 10.0 mi East 8.1 mph - N/A   Clear
8:54 AM 53.6 °F - 28.4 °F 38% 30.34 in 10.0 mi ENE 9.2 mph - N/A   Clear
9:13 AM 55.4 °F - 30.2 °F 38% 30.34 in 10.0 mi ENE 9.2 mph - N/A   Clear
9:33 AM 55.4 °F - 30.2 °F 38% 30.34 in 10.0 mi ENE 9.2 mph - N/A   Clear
9:54 AM 55.4 °F - 30.2 °F 38% 30.34 in 10.0 mi NE 10.4 mph - N/A   Clear
10:13 AM 55.4 °F - 30.2 °F 38% 30.34 in 10.0 mi ENE 6.9 mph - N/A   Clear
10:33 AM 55.4 °F - 33.8 °F 44% 30.33 in 10.0 mi ESE 9.2 mph - N/A   Clear
10:54 AM 57.2 °F - 33.8 °F 41% 30.32 in 10.0 mi ENE 9.2 mph - N/A   Clear
11:13 AM 57.2 °F - 33.8 °F 41% 30.33 in 10.0 mi ESE 8.1 mph - N/A   Clear
11:33 AM 57.2 °F - 35.6 °F 44% 30.33 in 10.0 mi SE 8.1 mph - N/A   Clear
11:54 AM 57.2 °F - 33.8 °F 41% 30.33 in 10.0 mi SE 9.2 mph - N/A   Clear
12:14 PM 55.4 °F - 33.8 °F 44% 30.33 in 10.0 mi ESE 9.2 mph - N/A   Clear
12:33 PM 57.2 °F - 33.8 °F 41% 30.33 in 10.0 mi ESE 9.2 mph - N/A   Clear
12:54 PM 57.2 °F - 33.8 °F 41% 30.33 in 10.0 mi ESE 6.9 mph - N/A   Clear
1:13 PM 57.2 °F - 33.8 °F 41% 30.32 in 10.0 mi ESE 10.4 mph - N/A   Clear
1:33 PM 57.2 °F - 33.8 °F 41% 30.31 in 10.0 mi ESE 10.4 mph - N/A   Clear
1:54 PM 59.0 °F - 32.0 °F 36% 30.31 in 10.0 mi East 8.1 mph - N/A   Clear
2:13 PM 59.0 °F - 33.8 °F 39% 30.30 in 10.0 mi SSE 8.1 mph - N/A   Clear
2:33 PM 59.0 °F - 30.2 °F 34% 30.30 in 10.0 mi SE 6.9 mph - N/A   Clear
2:54 PM 59.0 °F - 28.4 °F 31% 30.30 in 10.0 mi SE 10.4 mph - N/A   Clear
3:13 PM 60.8 °F - 28.4 °F 29% 30.30 in 10.0 mi ESE 5.8 mph - N/A   Clear
3:33 PM 59.0 °F - 28.4 °F 31% 30.30 in 10.0 mi SSE 8.1 mph - N/A   Clear
3:54 PM 59.0 °F - 28.4 °F 31% 30.29 in 10.0 mi SE 6.9 mph - N/A   Clear
4:13 PM 60.8 °F - 28.4 °F 29% 30.27 in 10.0 mi East 5.8 mph - N/A   Clear
4:33 PM 60.8 °F - 28.4 °F 29% 30.26 in 10.0 mi ENE 10.4 mph - N/A   Clear
4:54 PM 60.8 °F - 28.4 °F 29% 30.26 in 10.0 mi ENE 10.4 mph - N/A   Clear
5:14 PM 60.8 °F - 26.6 °F 27% 30.25 in 10.0 mi ESE 9.2 mph - N/A   Clear
5:33 PM 60.8 °F - 24.8 °F 25% 30.25 in 10.0 mi ESE 8.1 mph - N/A   Clear
5:53 PM 60.8 °F - 24.8 °F 25% 30.24 in 10.0 mi East 9.2 mph - N/A   Clear
6:14 PM 59.0 °F - 21.2 °F 23% 30.24 in 10.0 mi East 6.9 mph - N/A   Clear
6:33 PM 57.2 °F - 21.2 °F 25% 30.24 in 10.0 mi East 10.4 mph - N/A   Clear
6:53 PM 57.2 °F - 21.2 °F 25% 30.23 in 10.0 mi East 8.1 mph - N/A   Clear
7:14 PM 55.4 °F - 21.2 °F 26% 30.23 in 10.0 mi East 9.2 mph - N/A   Clear
7:33 PM 55.4 °F - 21.2 °F 26% 30.23 in 10.0 mi East 9.2 mph - N/A   Clear
7:53 PM 53.6 °F - 21.2 °F 28% 30.23 in 10.0 mi ENE 8.1 mph - N/A   Clear
8:13 PM 53.6 °F - 23.0 °F 30% 30.23 in 10.0 mi ENE 9.2 mph - N/A   Clear
8:33 PM 51.8 °F - 21.2 °F 30% 30.23 in 10.0 mi ENE 6.9 mph - N/A   Clear
8:54 PM 51.8 °F - 21.2 °F 30% 30.24 in 10.0 mi ENE 5.8 mph - N/A   Clear
9:13 PM 50.0 °F - 21.2 °F 32% 30.24 in 10.0 mi ENE 5.8 mph - N/A   Clear
9:33 PM 50.0 °F - 21.2 °F 32% 30.24 in 10.0 mi ENE 4.6 mph - N/A   Clear
9:54 PM 48.2 °F - 21.2 °F 34% 30.24 in 10.0 mi ENE 5.8 mph - N/A   Clear
10:13 PM 48.2 °F - 19.4 °F 32% 30.24 in 10.0 mi ENE 5.8 mph - N/A   Clear
10:34 PM 48.2 °F - 19.4 °F 32% 30.24 in 10.0 mi ENE 6.9 mph - N/A   Clear
10:54 PM 48.2 °F - 19.4 °F 32% 30.23 in 10.0 mi ENE 4.6 mph - N/A   Clear
11:13 PM 48.2 °F - 21.2 °F 34% 30.23 in 10.0 mi ENE 5.8 mph - N/A   Clear
11:34 PM 46.4 °F 42.9 °F 19.4 °F 34% 30.22 in 10.0 mi ENE 6.9 mph - N/A   Clear
11:54 PM 46.4 °F 42.9 °F 21.2 °F 37% 30.21 in 10.0 mi ENE 6.9 mph - N/A   Clear